createdAt,value
2023-05-01T00:00:12.110Z,100626.25
2023-05-01T00:03:18.301Z,100624.91
2023-05-01T00:06:20.853Z,100621.22
2023-05-01T00:09:23.547Z,100602.19
2023-05-01T00:12:26.477Z,100615.56
2023-05-01T00:15:29.288Z,100591.25
2023-05-01T00:18:31.612Z,100595.28
2023-05-01T00:21:34.246Z,100611.56
2023-05-01T00:24:36.556Z,100604.62
2023-05-01T00:27:39.201Z,100584.12
2023-05-01T00:30:41.773Z,100616.72
2023-05-01T00:33:44.332Z,100598.16
2023-05-01T00:36:49.353Z,100613.97
2023-05-01T00:39:52.509Z,100617.41
2023-05-01T00:42:54.831Z,100601.62
2023-05-01T00:45:57.502Z,100583.41
2023-05-01T00:49:00.485Z,100595.88
2023-05-01T00:52:03.505Z,100596.22
2023-05-01T00:55:06.782Z,100615.69
2023-05-01T00:58:10.826Z,100597.00
2023-05-01T01:01:13.387Z,100606.00
2023-05-01T01:04:16.217Z,100615.47
2023-05-01T01:08:14.122Z,100608.06
2023-05-01T01:11:53.550Z,100612.12
2023-05-01T01:15:10.181Z,100589.87
2023-05-01T01:18:23.746Z,100575.38
2023-05-01T01:21:35.356Z,100618.69
2023-05-01T01:25:09.983Z,100622.94
2023-05-01T01:28:25.770Z,100613.84
2023-05-01T01:31:47.123Z,100599.09
2023-05-01T01:34:56.001Z,100614.88
2023-05-01T01:38:06.710Z,100584.22
2023-05-01T01:41:13.882Z,100588.81
2023-05-01T01:44:28.813Z,100593.56
2023-05-01T01:47:34.579Z,100589.50
2023-05-01T01:50:39.278Z,100615.22
2023-05-01T01:53:46.033Z,100612.00
2023-05-01T01:56:49.584Z,100592.16
2023-05-01T01:59:55.380Z,100611.06
2023-05-01T02:03:01.305Z,100611.88
2023-05-01T02:06:05.328Z,100594.66
2023-05-01T02:09:10.658Z,100594.44
2023-05-01T02:12:16.800Z,100612.41
2023-05-01T02:15:20.851Z,100599.25
2023-05-01T02:18:24.678Z,100587.59
2023-05-01T02:21:28.142Z,100596.09
2023-05-01T02:24:33.161Z,100591.91
2023-05-01T02:27:40.859Z,100613.34
2023-05-01T02:30:43.513Z,100597.06
2023-05-01T02:33:45.991Z,100595.25
2023-05-01T02:36:49.360Z,100594.50
2023-05-01T02:39:51.952Z,100620.22
2023-05-01T02:42:55.112Z,100602.44
2023-05-01T02:45:59.846Z,100615.72
2023-05-01T02:49:03.991Z,100596.66
2023-05-01T02:52:07.309Z,100616.75
2023-05-01T02:55:10.500Z,100610.25
2023-05-01T02:58:20.304Z,100612.34
2023-05-01T03:01:24.181Z,100601.38
2023-05-01T03:04:27.113Z,100622.28
2023-05-01T03:07:35.135Z,100624.00
2023-05-01T03:10:40.184Z,100603.81
2023-05-01T03:13:43.595Z,100627.91
2023-05-01T03:16:46.072Z,100624.00
2023-05-01T03:19:49.753Z,100618.41
2023-05-01T03:22:52.022Z,100635.25
2023-05-01T03:25:54.882Z,100638.16
2023-05-01T03:28:57.490Z,100621.66
2023-05-01T03:32:00.640Z,100617.28
2023-05-01T03:35:03.270Z,100647.06
2023-05-01T03:38:06.025Z,100641.78
2023-05-01T03:41:11.349Z,100623.87
2023-05-01T03:44:15.949Z,100636.91
2023-05-01T03:47:19.604Z,100653.81
2023-05-01T03:50:22.291Z,100623.78
2023-05-01T03:53:25.388Z,100650.22
2023-05-01T03:56:28.495Z,100607.66
2023-05-01T03:59:31.011Z,100641.72
2023-05-01T04:02:34.251Z,100650.94
2023-05-01T04:05:37.325Z,100631.84
2023-05-01T04:08:39.670Z,100653.09
2023-05-01T04:11:42.827Z,100632.75
2023-05-01T04:14:45.660Z,100651.88
2023-05-01T04:17:48.551Z,100643.09
2023-05-01T04:20:52.270Z,100628.31
2023-05-01T04:23:55.104Z,100642.88
2023-05-01T04:26:58.623Z,100645.84
2023-05-01T04:30:01.237Z,100625.91
2023-05-01T04:33:11.346Z,100650.72
2023-05-01T04:36:14.028Z,100636.63
2023-05-01T04:39:17.156Z,100659.44
2023-05-01T04:42:19.940Z,100638.53
2023-05-01T04:45:22.350Z,100657.00
2023-05-01T04:48:25.593Z,100672.38
2023-05-01T04:51:29.042Z,100673.12
2023-05-01T04:54:31.802Z,100652.03
2023-05-01T04:57:34.129Z,100672.25
2023-05-01T05:00:38.247Z,100651.06
2023-05-01T05:03:41.236Z,100686.38
2023-05-01T05:06:44.378Z,100676.81
2023-05-01T05:09:47.651Z,100655.81
2023-05-01T05:12:50.580Z,100686.06
2023-05-01T05:15:53.154Z,100675.47
2023-05-01T05:18:57.686Z,100657.91
2023-05-01T05:22:03.184Z,100680.47
2023-05-01T05:25:08.747Z,100669.34
2023-05-01T05:28:11.080Z,100684.34
2023-05-01T05:31:13.841Z,100681.75
2023-05-01T05:34:17.514Z,100664.63
2023-05-01T05:37:20.157Z,100687.75
2023-05-01T05:40:23.260Z,100688.09
2023-05-01T05:43:28.098Z,100687.28
2023-05-01T05:46:31.460Z,100702.38
2023-05-01T05:49:34.331Z,100677.22
2023-05-01T05:52:36.703Z,100683.97
2023-05-01T05:55:39.508Z,100669.94
2023-05-01T05:58:41.870Z,100693.38
2023-05-01T06:01:44.722Z,100674.37
2023-05-01T06:04:47.633Z,100693.97
2023-05-01T06:07:50.353Z,100668.03
2023-05-01T06:10:53.362Z,100692.19
2023-05-01T06:13:57.445Z,100691.37
2023-05-01T06:17:00.068Z,100685.06
2023-05-01T06:20:02.351Z,100699.59
2023-05-01T06:23:05.020Z,100700.06
2023-05-01T06:26:08.559Z,100698.25
2023-05-01T06:29:11.455Z,100700.22
2023-05-01T06:32:13.841Z,100708.66
2023-05-01T06:35:16.710Z,100687.78
2023-05-01T06:38:19.035Z,100707.03
2023-05-01T06:41:22.170Z,100709.56
2023-05-01T06:44:25.144Z,100678.16
2023-05-01T06:47:28.024Z,100706.47
2023-05-01T06:50:30.605Z,100706.91
2023-05-01T06:53:34.861Z,100697.44
2023-05-01T06:56:37.391Z,100710.25
2023-05-01T06:59:40.292Z,100699.41
2023-05-01T07:02:43.480Z,100712.47
2023-05-01T07:05:46.311Z,100709.38
2023-05-01T07:08:48.723Z,100689.25
2023-05-01T07:11:51.405Z,100690.41
2023-05-01T07:14:53.750Z,100706.09
2023-05-01T07:17:56.554Z,100694.97
2023-05-01T07:20:58.982Z,100693.78
2023-05-01T07:24:01.641Z,100702.22
2023-05-01T07:27:04.075Z,100695.34
2023-05-01T07:30:07.269Z,100717.25
2023-05-01T07:33:09.717Z,100710.47
2023-05-01T07:36:13.110Z,100719.50
2023-05-01T07:39:17.603Z,100697.25
2023-05-01T07:42:21.259Z,100717.50
2023-05-01T07:45:23.611Z,100716.09
2023-05-01T07:48:27.500Z,100694.56
2023-05-01T07:51:30.004Z,100699.78
2023-05-01T07:54:33.272Z,100723.25
2023-05-01T07:57:36.221Z,100716.25
2023-05-01T08:00:38.852Z,100722.78
2023-05-01T08:03:42.244Z,100693.84
2023-05-01T08:06:44.966Z,100715.25
2023-05-01T08:09:47.546Z,100714.53
2023-05-01T08:12:49.923Z,100702.66
2023-05-01T08:15:53.080Z,100701.25
2023-05-01T08:18:55.896Z,100709.28
2023-05-01T08:21:58.503Z,100716.75
2023-05-01T08:25:00.814Z,100725.66
2023-05-01T08:28:03.654Z,100718.44
2023-05-01T08:31:07.248Z,100715.47
2023-05-01T08:34:10.078Z,100701.97
2023-05-01T08:37:12.541Z,100699.69
2023-05-01T08:40:15.626Z,100701.53
2023-05-01T08:43:18.197Z,100716.06
2023-05-01T08:46:29.337Z,100706.97
2023-05-01T08:49:36.922Z,100705.84
2023-05-01T08:52:43.357Z,100711.06
2023-05-01T08:55:49.166Z,100709.84
2023-05-01T08:58:55.604Z,100631.34
2023-05-01T09:02:01.853Z,100690.59
2023-05-01T09:05:06.568Z,100708.13
2023-05-01T09:08:09.054Z,100690.53
2023-05-01T09:11:12.282Z,100691.19
2023-05-01T09:14:14.695Z,100711.87
2023-05-01T09:17:17.470Z,100698.91
2023-05-01T09:20:20.502Z,100687.47
2023-05-01T09:23:23.299Z,100699.72
2023-05-01T09:26:26.913Z,100700.84
2023-05-01T09:29:41.719Z,100679.88
2023-05-01T09:32:44.115Z,100704.72
2023-05-01T09:35:58.630Z,100696.66
2023-05-01T09:39:02.109Z,100704.84
2023-05-01T09:42:05.096Z,100701.78
2023-05-01T09:45:14.781Z,100697.34
2023-05-01T09:48:17.419Z,100679.50
2023-05-01T09:51:22.288Z,100687.28
2023-05-01T09:54:25.091Z,100682.41
2023-05-01T09:57:38.304Z,100677.41
2023-05-01T10:00:47.762Z,100668.63
2023-05-01T10:03:54.782Z,100686.72
2023-05-01T10:06:57.595Z,100686.47
2023-05-01T10:10:21.821Z,100680.16
2023-05-01T10:13:24.030Z,100684.53
2023-05-01T10:16:30.109Z,100677.69
2023-05-01T10:19:32.705Z,100674.22
2023-05-01T10:22:35.743Z,100660.50
2023-05-01T10:25:40.975Z,100663.47
2023-05-01T10:28:46.445Z,100640.91
2023-05-01T10:31:48.878Z,100652.25
2023-05-01T10:34:59.038Z,100648.22
2023-05-01T10:38:05.019Z,100642.97
2023-05-01T10:41:09.311Z,100628.28
2023-05-01T10:44:23.376Z,100633.97
2023-05-01T10:47:28.758Z,100632.84
2023-05-01T10:50:31.204Z,100626.66
2023-05-01T10:53:33.845Z,100625.03
2023-05-01T10:56:41.676Z,100623.44
2023-05-01T11:00:01.874Z,100606.25
2023-05-01T11:03:21.868Z,100626.50
2023-05-01T11:06:25.502Z,100627.75
2023-05-01T11:09:44.609Z,100599.47
2023-05-01T11:12:47.389Z,100623.22
2023-05-01T11:15:49.800Z,100617.31
2023-05-01T11:18:52.449Z,100615.88
2023-05-01T11:21:55.769Z,100616.87
2023-05-01T11:24:58.750Z,100600.97
2023-05-01T11:28:04.259Z,100607.91
2023-05-01T11:31:07.047Z,100612.69
2023-05-01T11:34:10.175Z,100581.38
2023-05-01T11:37:12.792Z,100596.91
2023-05-01T11:40:29.882Z,100573.88
2023-05-01T11:43:32.846Z,100581.59
2023-05-01T11:46:35.273Z,100574.81
2023-05-01T11:49:39.061Z,100586.50
2023-05-01T11:52:43.820Z,100582.63
2023-05-01T11:55:46.738Z,100576.09
2023-05-01T11:58:49.121Z,100578.63
2023-05-01T12:01:52.571Z,100556.09
2023-05-01T12:04:55.535Z,100563.91
2023-05-01T12:08:10.077Z,100558.44
2023-05-01T12:11:13.344Z,100566.44
2023-05-01T12:14:16.451Z,100547.38
2023-05-01T12:17:19.375Z,100549.75
2023-05-01T12:20:42.495Z,100540.06
2023-05-01T12:23:45.695Z,100546.47
2023-05-01T12:27:00.655Z,100552.41
2023-05-01T12:30:03.458Z,100557.66
2023-05-01T12:33:21.990Z,100546.81
2023-05-01T12:36:27.225Z,100546.47
2023-05-01T12:39:38.628Z,100545.97
2023-05-01T12:42:42.063Z,100542.47
2023-05-01T12:45:44.458Z,100510.34
2023-05-01T12:48:49.219Z,100531.31
2023-05-01T12:51:56.837Z,100537.09
2023-05-01T12:55:04.872Z,100529.63
2023-05-01T12:58:07.276Z,100499.88
2023-05-01T13:01:09.960Z,100510.19
2023-05-01T13:04:12.435Z,100513.34
2023-05-01T13:07:17.455Z,100511.69
2023-05-01T13:10:30.507Z,100504.75
2023-05-01T13:13:36.059Z,100506.06
2023-05-01T13:16:46.563Z,100482.03
2023-05-01T13:19:57.087Z,100490.34
2023-05-01T13:22:59.680Z,100488.69
2023-05-01T13:26:04.369Z,100487.00
2023-05-01T13:29:07.298Z,100484.09
2023-05-01T13:32:12.672Z,100487.22
2023-05-01T13:35:26.022Z,100483.84
2023-05-01T13:38:31.939Z,100482.31
2023-05-01T13:41:35.981Z,100473.03
2023-05-01T13:44:51.132Z,100415.75
2023-05-01T13:47:55.341Z,100462.00
2023-05-01T13:50:58.341Z,100459.12
2023-05-01T13:54:01.239Z,100442.88
2023-05-01T13:57:04.009Z,100450.84
2023-05-01T14:00:09.161Z,100446.94
2023-05-01T14:03:16.128Z,100449.53
2023-05-01T14:06:22.494Z,100453.66
2023-05-01T14:09:25.008Z,100442.09
2023-05-01T14:12:33.793Z,100445.34
2023-05-01T14:15:37.117Z,100439.78
2023-05-01T14:18:47.582Z,100438.66
2023-05-01T14:21:52.602Z,100440.41
2023-05-01T14:24:55.286Z,100432.88
2023-05-01T14:28:00.979Z,100427.66
2023-05-01T14:31:03.855Z,100423.81
2023-05-01T14:34:07.096Z,100419.84
2023-05-01T14:37:10.042Z,100401.50
2023-05-01T14:40:12.781Z,100421.50
2023-05-01T14:43:20.280Z,100395.19
2023-05-01T14:46:30.919Z,100411.97
2023-05-01T14:49:33.762Z,100415.19
2023-05-01T14:52:39.143Z,100388.00
2023-05-01T14:55:42.189Z,100399.63
2023-05-01T14:58:44.734Z,100382.44
2023-05-01T15:01:48.748Z,100395.22
2023-05-01T15:04:53.585Z,100392.00
2023-05-01T15:07:56.883Z,100395.63
2023-05-01T15:11:02.428Z,100391.22
2023-05-01T15:14:05.956Z,100394.84
2023-05-01T15:17:08.443Z,100392.47
2023-05-01T15:20:12.879Z,100392.06
2023-05-01T15:23:18.337Z,100396.87
2023-05-01T15:26:26.580Z,100392.91
2023-05-01T15:29:29.214Z,100395.31
2023-05-01T15:32:38.475Z,100329.28
2023-05-01T15:35:53.779Z,100387.25
2023-05-01T15:38:59.112Z,100384.06
2023-05-01T15:42:18.602Z,100381.25
2023-05-01T15:45:21.738Z,100378.47
2023-05-01T15:48:24.452Z,100322.50
2023-05-01T15:51:27.055Z,100357.69
2023-05-01T15:54:31.805Z,100379.25
2023-05-01T15:57:36.956Z,100379.25
2023-05-01T16:00:50.189Z,100378.06
2023-05-01T16:04:13.381Z,100376.88
2023-05-01T16:07:38.290Z,100361.63
2023-05-01T16:10:51.466Z,100354.84
2023-05-01T16:14:29.312Z,100384.81
2023-05-01T16:17:55.246Z,100384.78
2023-05-01T16:22:01.547Z,100300.75
2023-05-01T16:25:10.553Z,100387.94
2023-05-01T16:28:28.583Z,100377.13
2023-05-01T16:32:18.048Z,100374.31
2023-05-01T16:35:50.385Z,100377.09
2023-05-01T16:39:17.962Z,100287.47
2023-05-01T16:42:56.203Z,100367.47
2023-05-01T16:46:05.802Z,100370.25
2023-05-01T16:49:41.147Z,100373.44
2023-05-01T16:52:43.879Z,100375.00
2023-05-01T16:56:20.241Z,100368.59
2023-05-01T16:59:24.511Z,100374.56
2023-05-01T17:03:05.723Z,100371.72
2023-05-01T17:09:42.622Z,100342.06
2023-05-01T17:12:53.338Z,100372.87
2023-05-01T17:15:56.753Z,100372.47
2023-05-01T17:18:59.497Z,100365.22
2023-05-01T17:22:41.586Z,100374.38
2023-05-01T17:25:51.917Z,100375.50
2023-05-01T17:29:04.301Z,100371.47
2023-05-01T17:33:05.865Z,100296.16
2023-05-01T17:40:14.488Z,100370.53
2023-05-01T17:47:23.208Z,100359.25
2023-05-01T17:50:43.891Z,100298.22
2023-05-01T17:54:03.306Z,100336.75
2023-05-01T17:57:09.789Z,100362.28
2023-05-01T18:00:17.648Z,100367.81
2023-05-01T18:03:40.079Z,100363.75
2023-05-01T18:07:44.590Z,100360.16
2023-05-01T18:10:57.283Z,100348.94
2023-05-01T18:14:26.599Z,100330.75
2023-05-01T18:17:34.501Z,100357.56
2023-05-01T18:20:38.282Z,100271.34
2023-05-01T18:23:52.823Z,100343.38
2023-05-01T18:26:55.263Z,100366.97
2023-05-01T18:29:58.933Z,100365.72
2023-05-01T18:33:01.729Z,100367.28
2023-05-01T18:36:06.094Z,100372.00
2023-05-01T18:39:09.170Z,100346.34
2023-05-01T18:42:12.011Z,100369.91
2023-05-01T18:45:14.690Z,100347.03
2023-05-01T18:48:17.591Z,100362.87
2023-05-01T18:51:22.675Z,100363.00
2023-05-01T18:54:25.434Z,100308.28
2023-05-01T18:57:28.770Z,100380.78
2023-05-01T19:00:37.473Z,100387.53
2023-05-01T19:03:40.579Z,100393.84
2023-05-01T19:06:43.516Z,100384.25
2023-05-01T19:09:46.210Z,100388.94
2023-05-01T19:12:58.018Z,100391.34
2023-05-01T19:16:15.816Z,100398.47
2023-05-01T19:19:21.075Z,100397.63
2023-05-01T19:22:23.567Z,100398.38
2023-05-01T19:25:26.298Z,100384.81
2023-05-01T19:28:28.713Z,100396.34
2023-05-01T19:31:31.404Z,100402.66
2023-05-01T19:34:33.873Z,100381.38
2023-05-01T19:37:36.677Z,100393.00
2023-05-01T19:40:39.749Z,100366.91
2023-05-01T19:43:42.424Z,100368.06
2023-05-01T19:46:45.075Z,100390.00
2023-05-01T19:49:48.830Z,100367.56
2023-05-01T19:52:51.428Z,100371.09
2023-05-01T19:55:54.241Z,100389.06
2023-05-01T19:58:56.623Z,100388.75
2023-05-01T20:02:01.056Z,100373.75
2023-05-01T20:05:05.010Z,100397.72
2023-05-01T20:08:11.892Z,100375.25
2023-05-01T20:11:14.757Z,100377.19
2023-05-01T20:14:17.124Z,100396.87
2023-05-01T20:17:19.979Z,100380.78
2023-05-01T20:20:22.312Z,100395.56
2023-05-01T20:23:25.035Z,100377.06
2023-05-01T20:26:27.504Z,100331.66
2023-05-01T20:29:35.329Z,100389.47
2023-05-01T20:32:44.480Z,100397.03
2023-05-01T20:35:51.442Z,100393.75
2023-05-01T20:38:57.685Z,100395.66
2023-05-01T20:42:03.146Z,100400.41
2023-05-01T20:45:06.419Z,100400.81
2023-05-01T20:48:11.032Z,100404.31
2023-05-01T20:51:23.042Z,100402.69
2023-05-01T20:54:25.794Z,100397.38
2023-05-01T20:57:28.124Z,100408.16
2023-05-01T21:00:30.777Z,100413.28
2023-05-01T21:03:33.423Z,100400.72
2023-05-01T21:06:36.419Z,100411.53
2023-05-01T21:09:46.397Z,100410.37
2023-05-01T21:12:49.177Z,100411.78
2023-05-01T21:15:52.690Z,100395.63
2023-05-01T21:18:56.437Z,100409.25
2023-05-01T21:21:58.677Z,100414.31
2023-05-01T21:25:01.400Z,100416.25
2023-05-01T21:28:05.830Z,100418.72
2023-05-01T21:31:12.536Z,100395.38
2023-05-01T21:34:20.669Z,100422.09
2023-05-01T21:37:23.319Z,100394.41
2023-05-01T21:40:27.257Z,100432.03
2023-05-01T21:43:33.687Z,100429.72
2023-05-01T21:46:37.283Z,100432.03
2023-05-01T21:49:40.118Z,100411.16
2023-05-01T21:52:44.263Z,100420.63
2023-05-01T21:55:46.993Z,100435.09
2023-05-01T21:58:51.205Z,100431.16
2023-05-01T22:01:54.215Z,100431.97
2023-05-01T22:04:57.074Z,100433.50
2023-05-01T22:08:00.513Z,100419.03
2023-05-01T22:11:04.131Z,100438.31
2023-05-01T22:14:07.407Z,100427.19
2023-05-01T22:17:10.322Z,100424.00
2023-05-01T22:20:13.209Z,100416.69
2023-05-01T22:23:15.924Z,100425.53
2023-05-01T22:26:18.316Z,100428.69
2023-05-01T22:29:21.047Z,100427.06
2023-05-01T22:32:23.697Z,100409.69
2023-05-01T22:35:26.597Z,100430.47
2023-05-01T22:38:29.095Z,100428.84
2023-05-01T22:41:32.922Z,100430.28
2023-05-01T22:44:35.804Z,100416.28
2023-05-01T22:47:38.427Z,100428.31
2023-05-01T22:50:42.782Z,100432.63
2023-05-01T22:53:45.501Z,100425.47
2023-05-01T22:56:49.871Z,100433.78
2023-05-01T22:59:52.598Z,100408.75
2023-05-01T23:02:55.062Z,100418.47
2023-05-01T23:05:57.984Z,100406.75
2023-05-01T23:09:00.437Z,100418.31
2023-05-01T23:12:04.292Z,100424.59
2023-05-01T23:15:09.487Z,100422.97
2023-05-01T23:18:15.797Z,100421.22
2023-05-01T23:21:19.333Z,100422.66
2023-05-01T23:24:21.901Z,100420.91
2023-05-01T23:27:24.178Z,100429.09
2023-05-01T23:30:26.784Z,100427.91
2023-05-01T23:33:35.734Z,100415.94
2023-05-01T23:36:38.315Z,100404.91
2023-05-01T23:39:40.646Z,100424.69
2023-05-01T23:42:43.448Z,100424.81
2023-05-01T23:45:45.929Z,100428.72
2023-05-01T23:48:48.540Z,100421.13
2023-05-01T23:51:52.009Z,100402.72
2023-05-01T23:54:54.660Z,100397.16
2023-05-01T23:57:58.318Z,100422.06
